Airfield :
LOGIN :

Register | Disclaimer

   EN    FR    IT 

 










Legend :    VFR   Marginal VFR   IFR   Intensive IFR   Very Intensive IFR
Visi :
Ceiling :
>= 8 km
>= 3000ft
5 to 8 km
1000 to 3000 ft
1500m to 5 km
500 to 1000 ft
800 to 1500m
200 to 500 ft
< 800m
< 200 ft
Symbols :   Thunderstorms  Fog  Heavy snow  Heavy precipitations  Wind > 20 kt
SIGMETs :     Misc.  Thunderstorms  Icing  Turbulence  Mountain Waves  Volcanic Ashes






- Airport Elevation : 782 ft
- IATA code : BGY


LIME - Orio al Serio International - Bergamo

CURRENT METAR :
  • 122050Z 11003KT 0900 R28/P1500N FG BKN002 08/08 Q0996 NOSIG

EXPIRED METARs :
  • 122020Z 11003KT 090V150 0600 R28/P1500N FG BKN002 08/08 Q0997 NOSIG
  • 121950Z 13005KT 1800 BCFG BKN002 08/08 Q0997 NOSIG
  • 121920Z 13004KT 1200 R28/P1500N BCFG BKN002 08/08 Q0996 NOSIG
  • 121850Z 13005KT 0900 R28/1400U FG BKN002 08/08 Q0996 NOSIG
  • 121820Z 15002KT 1200 R28/P1500N BCFG BKN002 08/08 Q0997 NOSIG

TAF AMD TAF LIME
Valid from the 12 at 19:00 until the 13 at 18:00 UTC


121911Z 1219/1318 VRB05KT 1200 BCFG BKN005
TEMPO 1219/1308 0500 FG OVC002
BECMG 1308/1310 7000 NSW SCT025



MET'MAP, your aeronautical weather chart ! - Copyright ORBIFLY December 2007 - Disclaimer

ORBIFLY MET'MAP TEAM :

Programming & Development : Alexandra Zaïnal
Concept & Development : Baudouin d'Aumeries
Co-Development & Prog : Marc-Olivier Méhu
Technical & hardware support : Manuel Goepfert

Contact : metmap@orbifly.com




SOURCES & CREDITS :

   NOAA